Time;durP1;ratioP1;P1;durP2;ratioP2;P2;SDS_P1;SDS_P2;PMS_P1;PMS_P2;Temp;Humidity;BMP_temperature;BMP_pressure;BME280_temperature;BME280_humidity;BME280_pressure;Samples;Min_cycle;Max_cycle;Signal;HPM_P1;HPM_P2
2023/07/27 00:00:16;;;;;;;32.55;30.50;;;;;;;;;;4993217;28;20476;-91
2023/07/27 00:03:09;;;;;;;27.98;26.42;;;;;;;;;;4976156;28;20101;-91
2023/07/27 00:05:38;;;;;;;25.02;23.50;;;;;;;;;;4946486;28;20041;-91
2023/07/27 00:08:04;;;;;;;23.92;22.55;;;;;;;;;;4975938;28;20035;-91
2023/07/27 00:10:31;;;;;;;33.50;30.95;;;;;;;;;;4995062;28;20030;-90
2023/07/27 00:15:55;;;;;;;30.25;28.25;;;;;;;;;;4963589;28;20035;-91
2023/07/27 00:18:24;;;;;;;31.08;29.05;;;;;;;;;;4975925;28;20045;-91
2023/07/27 00:20:50;;;;;;;24.55;23.10;;;;;;;;;;4976377;28;20089;-90
2023/07/27 00:23:16;;;;;;;22.30;21.00;;;;;;;;;;4991751;28;20495;-91
2023/07/27 00:25:52;;;;;;;35.35;33.05;;;;;;;;;;4995815;28;20027;-90
2023/07/27 00:28:18;;;;;;;32.90;30.90;;;;;;;;;;4996093;28;20557;-91
2023/07/27 00:30:53;;;;;;;22.15;20.88;;;;;;;;;;4993810;28;20057;-92
2023/07/27 00:33:20;;;;;;;32.60;30.15;;;;;;;;;;4975902;28;20396;-91
2023/07/27 00:36:09;;;;;;;27.70;26.00;;;;;;;;;;4975887;28;20607;-92
2023/07/27 00:38:46;;;;;;;26.63;25.08;;;;;;;;;;4964281;28;20031;-93
2023/07/27 00:41:41;;;;;;;28.23;26.42;;;;;;;;;;4971767;28;20053;-92
2023/07/27 00:44:07;;;;;;;22.92;21.25;;;;;;;;;;4902235;29;20048;-91
2023/07/27 00:46:58;;;;;;;23.42;22.08;;;;;;;;;;4910194;29;20084;-90
2023/07/27 00:50:11;;;;;;;;;;;;;;;;;;;;;
2023/07/27 00:56:08;;;;;;;17.95;16.83;;;;;;;;;;5107094;23;20069;-94
2023/07/27 00:58:42;;;;;;;23.45;22.02;;;;;;;;;;4996426;28;20220;-91
2023/07/27 01:01:36;;;;;;;31.17;29.17;;;;;;;;;;4981580;28;20030;-91
2023/07/27 01:22:32;;;;;;;28.52;26.65;;;;;;;;;;4995273;23;20046;-93
2023/07/27 01:25:26;;;;;;;31.48;29.60;;;;;;;;;;4977508;28;20038;-94
2023/07/27 01:27:59;;;;;;;24.73;23.35;;;;;;;;;;4977549;28;20027;-94
2023/07/27 01:30:25;;;;;;;22.88;21.42;;;;;;;;;;4977548;28;20023;-94
2023/07/27 01:32:58;;;;;;;27.33;25.80;;;;;;;;;;4977578;28;20054;-95
2023/07/27 01:35:27;;;;;;;21.57;20.17;;;;;;;;;;4977630;28;20027;-93
2023/07/27 01:37:56;;;;;;;32.05;29.90;;;;;;;;;;4977432;28;20270;-92
2023/07/27 01:40:23;;;;;;;25.38;23.65;;;;;;;;;;4977639;28;20070;-92
2023/07/27 01:42:55;;;;;;;26.92;25.27;;;;;;;;;;4977086;28;20034;-92
2023/07/27 01:45:22;;;;;;;28.02;26.27;;;;;;;;;;4977522;28;20038;-92
2023/07/27 01:47:48;;;;;;;28.05;26.42;;;;;;;;;;4977438;28;20026;-92
2023/07/27 01:50:15;;;;;;;25.17;23.70;;;;;;;;;;4990157;28;20021;-92
2023/07/27 01:52:42;;;;;;;25.40;23.90;;;;;;;;;;5001659;28;20045;-93
2023/07/27 01:55:15;;;;;;;23.90;22.50;;;;;;;;;;4985276;28;20093;-94
2023/07/27 01:57:41;;;;;;;28.70;26.83;;;;;;;;;;4979545;28;20124;-92
2023/07/27 02:00:15;;;;;;;25.92;24.45;;;;;;;;;;4977154;28;20034;-92
2023/07/27 02:02:42;;;;;;;25.90;24.27;;;;;;;;;;4977208;28;20445;-92
2023/07/27 02:05:15;;;;;;;26.55;24.95;;;;;;;;;;4980187;28;20035;-92
2023/07/27 02:07:42;;;;;;;27.10;25.48;;;;;;;;;;4980942;28;20446;-92
2023/07/27 02:10:21;;;;;;;30.92;28.85;;;;;;;;;;4980919;28;20030;-91
2023/07/27 02:13:04;;;;;;;28.50;26.70;;;;;;;;;;4980793;28;20033;-93
2023/07/27 02:15:37;;;;;;;22.10;20.80;;;;;;;;;;4980740;28;20034;-93
2023/07/27 02:18:06;;;;;;;;;;;;;;;;;;4981052;28;20038;-94
2023/07/27 02:20:44;;;;;;;27.02;25.30;;;;;;;;;;4983200;28;19909;-93
2023/07/27 02:23:14;;;;;;;23.65;22.02;;;;;;;;;;4980570;28;20050;-91
2023/07/27 02:25:40;;;;;;;23.20;21.73;;;;;;;;;;4981311;28;20069;-93
2023/07/27 02:28:09;;;;;;;27.58;25.85;;;;;;;;;;4980775;28;20057;-92
2023/07/27 02:30:35;;;;;;;24.33;22.95;;;;;;;;;;4980092;28;20502;-93
2023/07/27 02:33:08;;;;;;;27.67;25.98;;;;;;;;;;4980476;28;20031;-92
2023/07/27 02:35:34;;;;;;;24.25;22.55;;;;;;;;;;4980314;28;20022;-91
2023/07/27 02:38:03;;;;;;;34.42;32.35;;;;;;;;;;4980357;28;20037;-92
2023/07/27 02:40:29;;;;;;;24.30;22.85;;;;;;;;;;4980574;28;20019;-93
2023/07/27 02:42:55;;;;;;;47.92;44.63;;;;;;;;;;4982883;28;20039;-93
2023/07/27 02:45:21;;;;;;;33.25;31.25;;;;;;;;;;4994215;28;20030;-92
2023/07/27 02:47:47;;;;;;;30.80;29.00;;;;;;;;;;4988501;28;20027;-92
2023/07/27 02:50:14;;;;;;;27.95;26.25;;;;;;;;;;4980379;28;20031;-92
2023/07/27 02:52:46;;;;;;;28.25;26.52;;;;;;;;;;4980131;28;20037;-93
2023/07/27 02:55:12;;;;;;;32.28;30.40;;;;;;;;;;4979850;28;20041;-93
2023/07/27 02:57:41;;;;;;;31.60;29.52;;;;;;;;;;4979870;28;20052;-93
2023/07/27 03:00:10;;;;;;;29.23;27.48;;;;;;;;;;4979992;28;20065;-93
2023/07/27 03:02:36;;;;;;;36.47;34.38;;;;;;;;;;4979674;28;20050;-92
2023/07/27 03:05:05;;;;;;;31.38;29.35;;;;;;;;;;4980219;28;20076;-93
2023/07/27 03:07:31;;;;;;;39.42;36.92;;;;;;;;;;4979774;28;20034;-92
2023/07/27 03:09:57;;;;;;;34.80;32.70;;;;;;;;;;4979905;28;20030;-92
2023/07/27 03:12:29;;;;;;;33.95;32.03;;;;;;;;;;4979904;28;20396;-95
2023/07/27 03:14:55;;;;;;;38.03;35.70;;;;;;;;;;4979484;28;20030;-93
2023/07/27 03:17:21;;;;;;;32.28;30.38;;;;;;;;;;4980303;28;20041;-92
2023/07/27 03:19:50;;;;;;;34.30;31.95;;;;;;;;;;4979973;28;20027;-95
2023/07/27 03:22:16;;;;;;;38.88;36.50;;;;;;;;;;4980197;28;20056;-93
2023/07/27 03:24:42;;;;;;;34.10;32.10;;;;;;;;;;4979871;28;20038;-92
2023/07/27 03:27:08;;;;;;;45.03;42.58;;;;;;;;;;4979500;28;20483;-92
2023/07/27 03:29:34;;;;;;;37.40;35.28;;;;;;;;;;4979972;28;20031;-92
2023/07/27 03:32:01;;;;;;;42.10;39.42;;;;;;;;;;4980126;28;20026;-92
2023/07/27 03:34:27;;;;;;;45.20;42.55;;;;;;;;;;4980056;28;20041;-91
2023/07/27 03:36:56;;;;;;;44.83;42.20;;;;;;;;;;4980561;28;20065;-91
2023/07/27 03:39:25;;;;;;;41.17;38.70;;;;;;;;;;4979931;28;20068;-91
2023/07/27 03:41:51;;;;;;;45.78;43.10;;;;;;;;;;4980694;28;20030;-93
2023/07/27 03:44:17;;;;;;;37.80;35.60;;;;;;;;;;4979269;28;20451;-94
2023/07/27 03:46:43;;;;;;;29.27;27.40;;;;;;;;;;4980597;28;20475;-92
2023/07/27 03:49:10;;;;;;;31.25;29.42;;;;;;;;;;4980504;28;20041;-93
2023/07/27 03:51:39;;;;;;;40.33;37.70;;;;;;;;;;4979338;28;20034;-93
2023/07/27 03:54:05;;;;;;;32.88;30.88;;;;;;;;;;4979424;28;20034;-93
2023/07/27 03:56:31;;;;;;;27.38;25.75;;;;;;;;;;4979856;28;20121;-93
2023/07/27 03:58:57;;;;;;;29.90;27.98;;;;;;;;;;4979484;28;20049;-91
2023/07/27 04:01:29;;;;;;;34.00;32.00;;;;;;;;;;4979247;28;20061;-93
2023/07/27 04:03:55;;;;;;;28.95;27.27;;;;;;;;;;4978813;28;20097;-92
2023/07/27 04:06:22;;;;;;;29.17;27.25;;;;;;;;;;4978795;28;20080;-93
2023/07/27 04:08:51;;;;;;;25.13;23.52;;;;;;;;;;4979259;28;20073;-93
2023/07/27 04:11:17;;;;;;;27.92;26.23;;;;;;;;;;4979108;28;20057;-92
2023/07/27 04:13:52;;;;;;;30.27;28.45;;;;;;;;;;4978939;28;20022;-93
2023/07/27 04:16:18;;;;;;;31.55;29.60;;;;;;;;;;4978360;28;20030;-92
2023/07/27 04:18:44;;;;;;;25.50;23.80;;;;;;;;;;4978675;28;20037;-94
2023/07/27 04:21:16;;;;;;;22.95;21.55;;;;;;;;;;4978480;28;20034;-93
2023/07/27 04:23:42;;;;;;;29.33;27.67;;;;;;;;;;4959344;28;20122;-92
2023/07/27 04:26:12;;;;;;;24.13;22.67;;;;;;;;;;4959762;28;20027;-92
2023/07/27 04:28:41;;;;;;;17.90;16.88;;;;;;;;;;4959418;28;20047;-94
2023/07/27 04:31:07;;;;;;;17.70;16.65;;;;;;;;;;4959307;28;20539;-94
2023/07/27 04:33:33;;;;;;;17.30;16.25;;;;;;;;;;4958997;28;20073;-95
2023/07/27 04:36:03;;;;;;;18.60;17.52;;;;;;;;;;4959617;28;20048;-95
2023/07/27 04:38:29;;;;;;;23.42;22.05;;;;;;;;;;4960084;28;20034;-94
2023/07/27 04:40:57;;;;;;;31.88;29.88;;;;;;;;;;4969842;28;20086;-94
2023/07/27 04:43:24;;;;;;;35.83;33.83;;;;;;;;;;4995675;28;20102;-95
2023/07/27 04:45:53;;;;;;;31.00;29.27;;;;;;;;;;4964759;28;20117;-93
2023/07/27 04:48:19;;;;;;;45.78;42.30;;;;;;;;;;4958971;28;20089;-93
2023/07/27 04:50:45;;;;;;;29.02;27.42;;;;;;;;;;4963133;28;20076;-94
2023/07/27 04:53:17;;;;;;;37.75;35.55;;;;;;;;;;4982558;28;20047;-93
2023/07/27 04:55:47;;;;;;;27.45;25.83;;;;;;;;;;4971112;28;20031;-94
2023/07/27 04:58:19;;;;;;;36.38;34.25;;;;;;;;;;4960758;28;20613;-93
2023/07/27 05:01:09;;;;;;;35.80;33.55;;;;;;;;;;4959532;28;20078;-94
2023/07/27 05:03:47;;;;;;;34.72;32.65;;;;;;;;;;4886453;29;20052;-93
2023/07/27 05:06:16;;;;;;;40.20;37.88;;;;;;;;;;4957280;28;20041;-93
2023/07/27 05:08:54;;;;;;;27.30;25.80;;;;;;;;;;4959485;28;20062;-94
2023/07/27 05:11:29;;;;;;;42.10;39.45;;;;;;;;;;4958864;28;20031;-94
2023/07/27 05:14:07;;;;;;;46.80;44.10;;;;;;;;;;4958280;28;20045;-93
2023/07/27 05:16:43;;;;;;;39.25;36.85;;;;;;;;;;4958352;28;20393;-94
2023/07/27 05:22:01;;;;;;;36.90;34.67;;;;;;;;;;4922782;29;20171;-94
2023/07/27 05:24:30;;;;;;;31.42;29.35;;;;;;;;;;4954947;28;20050;-92
2023/07/27 05:26:59;;;;;;;48.08;43.40;;;;;;;;;;4958502;28;20023;-93
2023/07/27 05:29:42;;;;;;;29.02;26.92;;;;;;;;;;4958558;28;20078;-93
2023/07/27 05:32:32;;;;;;;55.22;51.30;;;;;;;;;;4957687;28;20118;-93
2023/07/27 05:35:18;;;;;;;64.70;60.10;;;;;;;;;;4974826;28;20041;-93
2023/07/27 05:37:47;;;;;;;55.22;52.10;;;;;;;;;;4974763;28;20042;-94
2023/07/27 05:49:16;;;;;;;39.20;36.97;;;;;;;;;;4998604;28;20042;-94
2023/07/27 05:51:42;;;;;;;148.85;114.20;;;;;;;;;;4981164;28;20030;-94
2023/07/27 05:54:11;;;;;;;42.22;39.65;;;;;;;;;;4981484;28;20030;-93
2023/07/27 05:56:41;;;;;;;62.13;57.22;;;;;;;;;;4981300;28;20033;-93
2023/07/27 05:59:13;;;;;;;97.35;90.55;;;;;;;;;;4981237;28;20030;-93
2023/07/27 06:01:41;;;;;;;97.43;88.40;;;;;;;;;;4980922;28;20404;-94
2023/07/27 06:04:11;;;;;;;94.03;87.57;;;;;;;;;;4981096;28;20089;-94
2023/07/27 06:06:54;;;;;;;;;;;;;;;;;;;;;
2023/07/27 06:09:36;;;;;;;146.65;135.98;;;;;;;;;;4998388;28;20033;-94
2023/07/27 06:12:11;;;;;;;123.93;116.20;;;;;;;;;;4980654;28;20035;-94
2023/07/27 06:14:41;;;;;;;124.10;116.63;;;;;;;;;;4981163;28;20077;-93
2023/07/27 06:17:07;;;;;;;129.35;121.97;;;;;;;;;;4980826;28;20022;-94
2023/07/27 06:19:44;;;;;;;155.73;146.35;;;;;;;;;;4986147;28;20112;-95
2023/07/27 06:22:12;;;;;;;182.68;171.40;;;;;;;;;;4980470;28;20408;-94
2023/07/27 06:24:41;;;;;;;242.35;226.05;;;;;;;;;;4980609;28;20100;-94
2023/07/27 06:27:10;;;;;;;170.45;159.90;;;;;;;;;;4980467;28;20033;-91
2023/07/27 06:29:53;;;;;;;144.35;135.73;;;;;;;;;;4980318;28;20026;-94
2023/07/27 06:32:19;;;;;;;150.82;142.40;;;;;;;;;;4981236;28;20490;-94
2023/07/27 06:34:45;;;;;;;134.98;127.57;;;;;;;;;;4987771;28;20484;-94
2023/07/27 06:37:19;;;;;;;145.75;137.55;;;;;;;;;;4999385;28;20120;-94
2023/07/27 06:39:45;;;;;;;159.10;150.20;;;;;;;;;;4991871;28;20046;-93
2023/07/27 07:09:17;;;;;;;119.38;112.97;;;;;;;;;;4991099;28;20043;-93
2023/07/27 07:11:43;;;;;;;173.30;163.57;;;;;;;;;;4960923;28;20130;-90
2023/07/27 07:14:12;;;;;;;149.85;141.35;;;;;;;;;;4976390;28;20484;-92
2023/07/27 07:16:41;;;;;;;197.48;186.32;;;;;;;;;;4979804;28;20476;-92
2023/07/27 07:19:07;;;;;;;162.35;152.98;;;;;;;;;;4980043;28;20037;-89
2023/07/27 07:21:37;;;;;;;140.38;132.73;;;;;;;;;;4961666;28;20117;-88
2023/07/27 07:24:06;;;;;;;143.20;135.32;;;;;;;;;;4960563;28;20034;-89
2023/07/27 07:26:34;;;;;;;152.40;144.00;;;;;;;;;;4960045;28;20023;-89
2023/07/27 08:42:50;;;;;;;146.77;138.40;;;;;;;;;;5072306;23;20069;-93
2023/07/27 08:45:21;;;;;;;145.05;137.07;;;;;;;;;;5001519;28;20018;-92
2023/07/27 08:47:52;;;;;;;135.47;127.80;;;;;;;;;;4998299;28;20076;-93
2023/07/27 08:50:19;;;;;;;158.90;150.00;;;;;;;;;;4997709;28;20383;-92
2023/07/27 09:05:46;;;;;;;162.52;153.32;;;;;;;;;;4952856;29;20060;-96
2023/07/27 09:08:41;;;;;;;;;;;;;;;;;;;;;
2023/07/27 09:29:46;;;;;;;96.38;90.88;;;;;;;;;;3639236;23;20029;-89
2023/07/27 09:32:12;;;;;;;112.60;106.20;;;;;;;;;;4987196;28;20507;-90
2023/07/27 09:34:38;;;;;;;136.75;129.05;;;;;;;;;;4971797;28;20030;-90
2023/07/27 09:37:07;;;;;;;89.60;84.43;;;;;;;;;;4974269;28;20026;-92
2023/07/27 09:39:43;;;;;;;84.57;79.80;;;;;;;;;;4977950;28;20030;-91
2023/07/27 09:42:13;;;;;;;145.48;136.77;;;;;;;;;;4977282;28;20488;-92
2023/07/27 09:44:49;;;;;;;110.18;103.88;;;;;;;;;;4968735;28;20167;-90
2023/07/27 09:47:23;;;;;;;96.30;90.93;;;;;;;;;;4958243;28;20034;-92
2023/07/27 09:49:50;;;;;;;122.18;115.30;;;;;;;;;;4957476;28;20039;-90
2023/07/27 09:52:40;;;;;;;76.28;72.13;;;;;;;;;;4958850;28;20035;-88
2023/07/27 09:55:07;;;;;;;89.00;83.93;;;;;;;;;;4960332;28;20031;-89
2023/07/27 09:57:33;;;;;;;115.45;108.10;;;;;;;;;;4977269;28;20046;-89
2023/07/27 10:00:01;;;;;;;82.25;77.68;;;;;;;;;;4977192;28;20030;-88
2023/07/27 10:02:27;;;;;;;110.32;104.10;;;;;;;;;;4977131;28;20034;-88
2023/07/27 10:04:59;;;;;;;103.80;97.35;;;;;;;;;;4977127;28;20033;-88
2023/07/27 10:07:27;;;;;;;85.15;80.38;;;;;;;;;;4976960;28;20034;-89
2023/07/27 10:10:14;;;;;;;90.13;84.93;;;;;;;;;;4977240;28;20022;-90
2023/07/27 10:12:43;;;;;;;145.43;135.68;;;;;;;;;;4994255;28;20077;-89
2023/07/27 10:15:27;;;;;;;83.65;78.75;;;;;;;;;;4976877;28;20117;-88
2023/07/27 10:18:04;;;;;;;77.82;73.28;;;;;;;;;;4974716;28;20026;-88
2023/07/27 10:20:31;;;;;;;164.95;152.10;;;;;;;;;;4994228;28;20095;-88
2023/07/27 10:23:32;;;;;;;151.55;142.50;;;;;;;;;;4977417;28;20387;-89
2023/07/27 10:25:58;;;;;;;81.75;77.15;;;;;;;;;;4883526;29;20048;-89
2023/07/27 10:28:31;;;;;;;72.93;68.88;;;;;;;;;;4898700;28;20035;-89
2023/07/27 10:31:20;;;;;;;88.30;82.88;;;;;;;;;;4990763;28;20050;-90
2023/07/27 10:33:47;;;;;;;107.05;100.80;;;;;;;;;;5002393;28;20034;-89
2023/07/27 10:36:14;;;;;;;69.43;65.55;;;;;;;;;;5005888;28;20022;-89
2023/07/27 10:38:51;;;;;;;84.32;79.28;;;;;;;;;;5000949;28;20022;-90
2023/07/27 10:41:19;;;;;;;95.45;89.95;;;;;;;;;;5009121;28;20511;-93
2023/07/27 10:44:07;;;;;;;64.43;60.95;;;;;;;;;;5005565;28;20033;-90
2023/07/27 10:46:35;;;;;;;93.18;87.68;;;;;;;;;;5002318;28;20026;-90
2023/07/27 10:49:17;;;;;;;118.75;111.60;;;;;;;;;;4980253;28;20468;-90
2023/07/27 10:51:47;;;;;;;150.00;140.75;;;;;;;;;;4980711;28;20026;-89
2023/07/27 10:54:14;;;;;;;82.20;77.03;;;;;;;;;;4991902;28;20042;-87
2023/07/27 10:56:44;;;;;;;76.40;72.13;;;;;;;;;;4996818;28;20078;-89
2023/07/27 10:59:14;;;;;;;99.28;93.10;;;;;;;;;;4998619;28;20053;-86
2023/07/27 11:01:40;;;;;;;55.30;52.22;;;;;;;;;;4999281;28;20065;-88
2023/07/27 11:04:07;;;;;;;100.30;94.40;;;;;;;;;;4982526;28;20030;-88
2023/07/27 11:06:42;;;;;;;139.90;131.57;;;;;;;;;;4979868;28;20029;-91
2023/07/27 11:09:12;;;;;;;61.22;57.92;;;;;;;;;;4980399;28;20403;-89
2023/07/27 11:11:38;;;;;;;77.38;72.97;;;;;;;;;;4980085;28;20031;-90
2023/07/27 11:14:05;;;;;;;101.55;95.22;;;;;;;;;;4979626;28;20042;-93
2023/07/27 11:16:39;;;;;;;111.97;105.47;;;;;;;;;;4993409;28;20623;-93
2023/07/27 11:19:09;;;;;;;182.27;168.15;;;;;;;;;;4995854;28;20037;-90
2023/07/27 11:21:40;;;;;;;99.22;93.55;;;;;;;;;;5009338;28;20018;-94
2023/07/27 11:24:12;;;;;;;80.38;75.75;;;;;;;;;;4991592;28;20165;-89
2023/07/27 11:26:38;;;;;;;67.57;63.83;;;;;;;;;;4998865;28;20117;-94
2023/07/27 11:29:10;;;;;;;67.82;64.00;;;;;;;;;;4999061;28;20056;-91
2023/07/27 11:31:57;;;;;;;83.75;78.85;;;;;;;;;;4975222;28;20043;-95
2023/07/27 11:34:26;;;;;;;112.45;105.53;;;;;;;;;;4967904;28;20065;-93
2023/07/27 11:36:57;;;;;;;56.15;52.95;;;;;;;;;;4969949;28;20033;-91
2023/07/27 11:39:32;;;;;;;67.40;63.28;;;;;;;;;;4978033;28;20030;-91
2023/07/27 11:42:06;;;;;;;120.03;112.60;;;;;;;;;;5225565;23;20062;-91
2023/07/27 11:44:47;;;;;;;97.80;91.38;;;;;;;;;;4998584;28;20041;-90
2023/07/27 11:47:13;;;;;;;86.35;81.30;;;;;;;;;;4998576;28;20030;-91
2023/07/27 11:49:51;;;;;;;58.63;55.15;;;;;;;;;;4998308;28;20030;-91
2023/07/27 11:52:31;;;;;;;98.10;91.93;;;;;;;;;;4998495;28;20026;-90
2023/07/27 11:55:06;;;;;;;68.53;64.40;;;;;;;;;;4998452;28;20091;-91
2023/07/27 11:58:08;;;;;;;144.10;134.45;;;;;;;;;;5289712;23;21202;-96
2023/07/27 12:07:11;;;;;;;71.85;67.88;;;;;;;;;;4954177;29;20075;-92
2023/07/27 16:30:52;;;;;;;80.97;75.77;;;;;;;;;;5628586;22;17072926;-95
2023/07/27 16:33:19;;;;;;;59.72;55.78;;;;;;;;;;6372717;22;20035;-95
2023/07/27 16:36:33;;;;;;;68.72;64.65;;;;;;;;;;6352939;22;20005;-96
2023/07/27 16:38:57;;;;;;;43.25;40.30;;;;;;;;;;6366306;22;20002;-95
2023/07/27 16:41:41;;;;;;;59.50;55.80;;;;;;;;;;6375224;22;19995;-94
2023/07/27 16:44:10;;;;;;;48.92;46.08;;;;;;;;;;6380899;22;20007;-95
2023/07/27 16:46:46;;;;;;;47.85;45.05;;;;;;;;;;6371663;22;20014;-95
2023/07/27 16:49:18;;;;;;;40.58;37.42;;;;;;;;;;6354192;22;20010;-95
2023/07/27 16:51:44;;;;;;;121.57;112.80;;;;;;;;;;6352617;22;20025;-95
2023/07/27 16:54:20;;;;;;;51.92;48.40;;;;;;;;;;6353858;22;20014;-94
2023/07/27 16:57:09;;;;;;;;;;;;;;;;;;;;;
2023/07/27 16:59:42;;;;;;;98.05;90.05;;;;;;;;;;6384403;22;20029;-94
2023/07/27 17:02:12;;;;;;;71.47;66.88;;;;;;;;;;6356124;22;20002;-92
2023/07/27 17:07:47;;;;;;;99.33;92.27;;;;;;;;;;6317364;22;20009;-94
2023/07/27 17:10:16;;;;;;;41.75;39.20;;;;;;;;;;6292076;22;20015;-94
2023/07/27 17:12:42;;;;;;;81.15;75.38;;;;;;;;;;6290522;22;19999;-94
2023/07/27 17:15:11;;;;;;;48.97;46.20;;;;;;;;;;6316889;22;20078;-95
2023/07/27 17:17:37;;;;;;;85.55;79.88;;;;;;;;;;6292052;22;20007;-94
2023/07/27 17:20:25;;;;;;;123.32;113.28;;;;;;;;;;6296643;22;19999;-94
2023/07/27 17:23:05;;;;;;;53.63;50.33;;;;;;;;;;6290788;22;20094;-92
2023/07/27 17:25:34;;;;;;;65.55;61.10;;;;;;;;;;6292766;22;20444;-94
2023/07/27 17:28:06;;;;;;;43.67;41.28;;;;;;;;;;6268178;22;20340;-92
2023/07/27 17:30:38;;;;;;;123.87;112.67;;;;;;;;;;6294756;22;20031;-95
2023/07/27 17:33:48;;;;;;;60.08;56.22;;;;;;;;;;6289569;22;20007;-96
2023/07/27 17:36:23;;;;;;;46.70;43.88;;;;;;;;;;6308832;22;20002;-94
2023/07/27 17:42:17;;;;;;;57.45;53.85;;;;;;;;;;6282099;22;20011;-92
2023/07/27 17:45:04;;;;;;;92.97;85.88;;;;;;;;;;6273415;22;20007;-93
2023/07/27 17:47:29;;;;;;;88.05;82.50;;;;;;;;;;6341416;22;20056;-92
2023/07/27 17:50:11;;;;;;;;;;;;;;;;;;;;;
2023/07/27 17:52:54;;;;;;;;;;;;;;;;;;;;;
2023/07/27 17:55:24;;;;;;;45.80;43.20;;;;;;;;;;6340290;22;20635;-95
2023/07/27 18:01:13;;;;;;;48.97;46.10;;;;;;;;;;6225059;23;20008;-92
2023/07/27 18:03:54;;;;;;;45.17;42.67;;;;;;;;;;6246373;23;20516;-93
2023/07/27 18:06:20;;;;;;;46.28;43.70;;;;;;;;;;6248027;23;20008;-93
2023/07/27 18:08:59;;;;;;;;;;;;;;;;;;;;;
2023/07/27 18:11:31;;;;;;;46.55;43.80;;;;;;;;;;6270072;22;20078;-92
2023/07/27 18:14:00;;;;;;;43.88;41.38;;;;;;;;;;6339827;22;20002;-92
2023/07/27 18:16:26;;;;;;;44.85;42.25;;;;;;;;;;6339907;22;20007;-91
2023/07/27 18:19:16;;;;;;;60.65;56.85;;;;;;;;;;6339846;22;20093;-93
2023/07/27 18:27:45;;;;;;;39.90;37.50;;;;;;;;;;6339410;22;20016;-93
2023/07/27 18:30:14;;;;;;;40.70;38.38;;;;;;;;;;6312407;22;20075;-93
2023/07/27 18:35:37;;;;;;;42.13;39.75;;;;;;;;;;6302267;22;20011;-95
2023/07/27 18:38:13;;;;;;;74.85;69.55;;;;;;;;;;6342461;22;20003;-94
2023/07/27 18:40:53;;;;;;;39.42;37.17;;;;;;;;;;6363781;22;20003;-94
2023/07/27 18:49:02;;;;;;;33.40;31.27;;;;;;;;;;6387912;22;20029;-93
2023/07/27 18:51:46;;;;;;;41.45;38.85;;;;;;;;;;6402772;22;20009;-95
2023/07/27 18:54:24;;;;;;;;;;;;;;;;;;6381415;22;20021;-95
2023/07/27 18:56:50;;;;;;;30.27;28.42;;;;;;;;;;6377655;22;19910;-91
2023/07/27 18:59:16;;;;;;;36.45;34.33;;;;;;;;;;6376582;22;20328;-89
2023/07/27 19:01:45;;;;;;;48.72;45.78;;;;;;;;;;6376262;22;20058;-89
2023/07/27 19:04:20;;;;;;;29.02;27.17;;;;;;;;;;6376631;22;20014;-92
2023/07/27 19:07:06;;;;;;;36.22;34.03;;;;;;;;;;6378149;22;20035;-93
2023/07/27 19:30:56;;;;;;;30.10;28.38;;;;;;;;;;6310639;22;20018;-95
2023/07/27 19:39:05;;;;;;;47.00;44.10;;;;;;;;;;6353893;22;20036;-94
2023/07/27 19:41:34;;;;;;;46.13;43.03;;;;;;;;;;6397262;22;20018;-93
2023/07/27 19:50:38;;;;;;;29.60;27.65;;;;;;;;;;6260751;23;20012;-94
2023/07/27 19:53:07;;;;;;;28.30;26.40;;;;;;;;;;6312130;22;20090;-96
2023/07/27 19:55:39;;;;;;;37.92;35.72;;;;;;;;;;6376232;22;20009;-95
2023/07/27 19:58:05;;;;;;;25.85;24.38;;;;;;;;;;6358803;22;20022;-94
2023/07/27 20:00:50;;;;;;;41.95;39.50;;;;;;;;;;6405339;22;20001;-96
2023/07/27 20:03:25;;;;;;;35.83;33.72;;;;;;;;;;6404888;22;20001;-95
2023/07/27 20:08:45;;;;;;;46.95;43.42;;;;;;;;;;6435970;22;20042;-94
2023/07/27 20:11:23;;;;;;;39.85;37.35;;;;;;;;;;6415525;22;20023;-96
2023/07/27 20:13:53;;;;;;;40.03;37.70;;;;;;;;;;6400475;22;20001;-94
2023/07/27 20:16:31;;;;;;;36.00;33.88;;;;;;;;;;6407980;22;20001;-93
2023/07/27 20:19:00;;;;;;;45.30;42.38;;;;;;;;;;6409236;22;20001;-94
2023/07/27 20:21:29;;;;;;;32.83;30.92;;;;;;;;;;6409105;22;20061;-95
2023/07/27 20:23:58;;;;;;;35.20;33.05;;;;;;;;;;6343589;22;19998;-94
2023/07/27 20:26:30;;;;;;;34.45;32.53;;;;;;;;;;6315898;22;20010;-94
2023/07/27 20:28:56;;;;;;;38.75;36.50;;;;;;;;;;6312978;22;20011;-95
2023/07/27 20:34:50;;;;;;;27.27;25.58;;;;;;;;;;6339287;22;20014;-96
2023/07/27 20:37:25;;;;;;;37.10;34.95;;;;;;;;;;6335321;22;19995;-93
2023/07/27 20:39:51;;;;;;;41.15;38.75;;;;;;;;;;6335366;22;20010;-93
2023/07/27 20:42:26;;;;;;;32.75;30.83;;;;;;;;;;6313708;22;20010;-94
2023/07/27 20:44:58;;;;;;;44.10;41.63;;;;;;;;;;6321132;22;20048;-96
2023/07/27 20:47:25;;;;;;;29.77;27.88;;;;;;;;;;6318361;22;20013;-94
2023/07/27 20:49:57;;;;;;;44.25;41.65;;;;;;;;;;6311173;22;20042;-96
2023/07/27 20:58:48;;;;;;;29.50;27.67;;;;;;;;;;6439627;22;20434;-96
2023/07/27 21:15:55;;;;;;;27.88;26.23;;;;;;;;;;6452238;22;20069;-94
2023/07/27 21:18:31;;;;;;;28.55;26.83;;;;;;;;;;6387447;22;20028;-94
2023/07/27 21:20:57;;;;;;;32.15;30.27;;;;;;;;;;6411640;22;20033;-94
2023/07/27 21:23:26;;;;;;;31.88;29.88;;;;;;;;;;6419497;22;20001;-95
2023/07/27 21:26:02;;;;;;;32.45;30.50;;;;;;;;;;6412548;22;20005;-95
2023/07/27 21:28:28;;;;;;;38.17;35.78;;;;;;;;;;6416503;22;20017;-95
2023/07/27 21:30:58;;;;;;;41.67;39.17;;;;;;;;;;6417228;22;19997;-95
2023/07/27 21:33:33;;;;;;;32.53;30.65;;;;;;;;;;6409846;22;20025;-95
2023/07/27 21:36:05;;;;;;;30.67;28.92;;;;;;;;;;6409624;22;20024;-95
2023/07/27 21:38:35;;;;;;;31.73;29.42;;;;;;;;;;6408694;22;19997;-94
2023/07/27 21:41:19;;;;;;;38.60;36.28;;;;;;;;;;6408973;22;20483;-95
2023/07/27 21:43:48;;;;;;;33.88;31.75;;;;;;;;;;6408801;22;19997;-95
2023/07/27 21:46:17;;;;;;;39.80;37.33;;;;;;;;;;6408860;22;20419;-96
2023/07/27 21:48:50;;;;;;;37.38;34.35;;;;;;;;;;6409096;22;20013;-95
2023/07/27 21:51:21;;;;;;;47.40;44.65;;;;;;;;;;6409392;22;20005;-94
2023/07/27 21:53:54;;;;;;;42.72;40.08;;;;;;;;;;6410682;22;19998;-96
2023/07/27 21:56:23;;;;;;;33.17;30.98;;;;;;;;;;6410539;22;20100;-96
2023/07/27 21:58:49;;;;;;;44.65;41.95;;;;;;;;;;6409045;22;20441;-94
2023/07/27 22:01:21;;;;;;;43.00;40.28;;;;;;;;;;6409147;22;20036;-95
2023/07/27 22:03:53;;;;;;;38.58;35.88;;;;;;;;;;6409094;22;20093;-96
2023/07/27 22:06:22;;;;;;;38.47;36.08;;;;;;;;;;6408557;22;20005;-94
2023/07/27 22:08:55;;;;;;;34.92;32.70;;;;;;;;;;6408833;22;20085;-95
2023/07/27 22:11:21;;;;;;;34.30;32.25;;;;;;;;;;6408329;22;20005;-95
2023/07/27 22:13:53;;;;;;;41.28;38.72;;;;;;;;;;6391377;22;20303;-95
2023/07/27 22:16:22;;;;;;;31.33;29.20;;;;;;;;;;6408361;22;20003;-95
2023/07/27 22:18:55;;;;;;;39.63;37.25;;;;;;;;;;6402733;22;20078;-95
2023/07/27 22:24:34;;;;;;;35.95;33.63;;;;;;;;;;6404737;22;20223;-96
2023/07/27 22:27:09;;;;;;;43.08;40.17;;;;;;;;;;6403920;22;20010;-96
2023/07/27 22:29:41;;;;;;;40.90;38.53;;;;;;;;;;6406062;22;20037;-95
2023/07/27 22:32:10;;;;;;;40.35;37.55;;;;;;;;;;6422715;22;20029;-95
2023/07/27 22:34:37;;;;;;;38.95;36.63;;;;;;;;;;6413237;22;20002;-95
2023/07/27 22:37:09;;;;;;;38.33;35.72;;;;;;;;;;6365928;22;20134;-95
2023/07/27 22:39:36;;;;;;;33.08;31.15;;;;;;;;;;6406723;22;20005;-95
2023/07/27 22:45:29;;;;;;;33.88;31.77;;;;;;;;;;6404362;22;20090;-96
2023/07/27 22:47:58;;;;;;;34.35;32.30;;;;;;;;;;6402770;22;19998;-95
2023/07/27 22:50:27;;;;;;;31.98;29.95;;;;;;;;;;6402792;22;20005;-94
2023/07/27 22:53:00;;;;;;;30.65;28.75;;;;;;;;;;6402750;22;20005;-94
2023/07/27 22:55:26;;;;;;;31.20;29.40;;;;;;;;;;6403028;22;20002;-95
2023/07/27 22:57:52;;;;;;;38.95;36.63;;;;;;;;;;6402644;22;19997;-94
2023/07/27 23:00:24;;;;;;;32.17;30.30;;;;;;;;;;6402547;22;19997;-94
2023/07/27 23:02:56;;;;;;;33.60;31.65;;;;;;;;;;6402918;22;20013;-95
2023/07/27 23:05:28;;;;;;;40.70;38.40;;;;;;;;;;6402668;22;19998;-94
2023/07/27 23:07:57;;;;;;;31.20;29.45;;;;;;;;;;6402452;22;20427;-94
2023/07/27 23:10:24;;;;;;;34.55;32.47;;;;;;;;;;6402395;22;20017;-94
2023/07/27 23:12:59;;;;;;;38.03;35.67;;;;;;;;;;6401395;22;20006;-95
2023/07/27 23:18:14;;;;;;;29.88;28.08;;;;;;;;;;6371210;22;19998;-96
2023/07/27 23:20:44;;;;;;;33.90;31.70;;;;;;;;;;6402486;22;20013;-94
2023/07/27 23:23:34;;;;;;;39.15;36.90;;;;;;;;;;6382358;22;19998;-96
2023/07/27 23:26:12;;;;;;;38.97;36.72;;;;;;;;;;6357531;22;20033;-95
2023/07/27 23:31:57;;;;;;;24.38;22.92;;;;;;;;;;6379933;22;20009;-96
2023/07/27 23:34:28;;;;;;;35.10;32.65;;;;;;;;;;6355603;22;20388;-94
2023/07/27 23:37:36;;;;;;;33.95;31.98;;;;;;;;;;6361698;22;20033;-96
2023/07/27 23:40:04;;;;;;;35.42;33.28;;;;;;;;;;6318765;22;20113;-96
2023/07/27 23:46:00;;;;;;;35.80;33.47;;;;;;;;;;6250837;23;20008;-96